Time;durP1;ratioP1;P1;durP2;ratioP2;P2;SDS_P1;SDS_P2;PMS_P1;PMS_P2;Temp;Humidity;BMP_temperature;BMP_pressure;BME280_temperature;BME280_humidity;BME280_pressure;Samples;Min_cycle;Max_cycle;Signal;HPM_P1;HPM_P2
2022/10/23 00:09:15;;;;;;;4.70;2.20;;;13.20;99.90;;;;;;20722461;28;20077;-39
2022/10/23 00:19:17;;;;;;;9.63;2.75;;;13.10;99.90;;;;;;20707456;28;20057;-39
2022/10/23 00:29:19;;;;;;;3.65;2.45;;;13.00;99.90;;;;;;20720321;28;20112;-39
2022/10/23 00:39:20;;;;;;;3.90;2.42;;;13.00;99.90;;;;;;20732013;28;20778;-39
2022/10/23 00:49:22;;;;;;;4.38;2.55;;;12.90;99.90;;;;;;20709859;28;20034;-39
2022/10/23 00:59:23;;;;;;;12.82;2.63;;;12.80;99.90;;;;;;20731023;28;20464;-39
2022/10/23 01:09:45;;;;;;;3.47;1.95;;;12.80;99.90;;;;;;20727884;28;20061;-39
2022/10/23 01:20:17;;;;;;;3.05;2.22;;;12.70;99.90;;;;;;20734840;28;20809;-39
2022/10/23 01:30:19;;;;;;;4.72;2.33;;;12.70;99.90;;;;;;20729206;28;20184;-39
2022/10/23 01:40:43;;;;;;;7.90;2.40;;;12.80;99.90;;;;;;20720401;28;20094;-39
2022/10/23 01:50:45;;;;;;;5.57;2.60;;;12.70;99.90;;;;;;20739522;28;20986;-39
2022/10/23 02:00:48;;;;;;;4.43;2.85;;;12.70;99.90;;;;;;20735276;28;20057;-39
2022/10/23 02:11:02;;;;;;;6.68;2.47;;;12.70;99.90;;;;;;20731405;28;20061;-39
2022/10/23 02:21:05;;;;;;;4.18;1.85;;;12.70;99.90;;;;;;20727460;28;20420;-39
2022/10/23 02:41:38;;;;;;;4.72;2.15;;;12.60;99.90;;;;;;21553840;22;20141;-85
2022/10/23 02:52:04;;;;;;;5.75;2.35;;;12.70;99.90;;;;;;20710497;28;20127;-84
2022/10/23 03:02:17;;;;;;;4.18;1.75;;;12.60;99.90;;;;;;20722484;28;20053;-84
2022/10/23 03:12:18;;;;;;;4.25;2.42;;;12.70;99.90;;;;;;20735411;28;20104;-83
2022/10/23 03:22:20;;;;;;;5.22;2.97;;;12.70;99.90;;;;;;20714968;28;20042;-82
2022/10/23 03:32:21;;;;;;;8.15;3.00;;;12.70;99.90;;;;;;20661001;28;20102;-83
2022/10/23 03:42:22;;;;;;;3.25;1.33;;;12.70;99.90;;;;;;20602208;28;20065;-84
2022/10/23 03:52:23;;;;;;;3.60;1.85;;;12.70;99.90;;;;;;20601697;28;20042;-86
2022/10/23 04:02:24;;;;;;;2.78;1.42;;;12.70;99.90;;;;;;20614384;28;20066;-85
2022/10/23 04:12:25;;;;;;;12.57;2.78;;;12.70;99.90;;;;;;20607473;28;20428;-85
2022/10/23 04:22:26;;;;;;;2.55;1.35;;;12.60;99.90;;;;;;20629351;28;20526;-85
2022/10/23 04:32:27;;;;;;;2.42;1.58;;;12.60;99.90;;;;;;20609472;28;20511;-84
2022/10/23 04:42:28;;;;;;;3.15;1.42;;;12.60;99.90;;;;;;20595584;28;20432;-83
2022/10/23 04:52:29;;;;;;;3.20;1.75;;;12.60;99.90;;;;;;20605441;28;20049;-84
2022/10/23 05:02:30;;;;;;;3.28;1.70;;;12.70;99.90;;;;;;20640350;28;20054;-84
2022/10/23 05:12:31;;;;;;;3.67;2.38;;;12.70;99.90;;;;;;20596743;28;20057;-85
2022/10/23 05:22:36;;;;;;;3.30;1.52;;;12.80;99.90;;;;;;20596092;28;20398;-85
2022/10/23 05:32:39;;;;;;;2.85;1.27;;;12.90;99.90;;;;;;20616702;28;20037;-83
2022/10/23 05:42:40;;;;;;;4.53;1.77;;;13.00;99.90;;;;;;20631341;28;20058;-83
2022/10/23 05:52:41;;;;;;;3.03;1.52;;;13.20;99.90;;;;;;20648549;28;20248;-84
2022/10/23 06:02:42;;;;;;;2.65;1.42;;;13.30;99.90;;;;;;20633119;28;20393;-83
2022/10/23 06:12:43;;;;;;;8.82;2.40;;;13.30;99.90;;;;;;20634090;28;20446;-85
2022/10/23 06:22:44;;;;;;;4.13;1.58;;;13.40;99.90;;;;;;20598789;28;20098;-86
2022/10/23 06:32:45;;;;;;;2.03;0.98;;;13.40;99.90;;;;;;20642757;28;20278;-84
2022/10/23 06:42:46;;;;;;;2.67;1.52;;;13.50;99.90;;;;;;20637688;28;20054;-83
2022/10/23 06:52:47;;;;;;;3.83;2.03;;;13.50;99.90;;;;;;20600401;28;20274;-86
2022/10/23 07:02:49;;;;;;;3.30;1.25;;;13.60;99.90;;;;;;20628771;28;20446;-84
2022/10/23 07:12:50;;;;;;;2.90;1.65;;;13.50;99.90;;;;;;20621239;28;20145;-83
2022/10/23 07:22:53;;;;;;;2.17;1.20;;;13.60;99.90;;;;;;20626994;28;20513;-86
2022/10/23 07:32:54;;;;;;;4.10;1.42;;;13.70;99.90;;;;;;20623311;28;20125;-83
2022/10/23 07:42:55;;;;;;;4.88;1.48;;;13.80;99.90;;;;;;20626230;28;20059;-83
2022/10/23 07:52:57;;;;;;;3.05;1.30;;;13.80;99.90;;;;;;20635524;28;20112;-82
2022/10/23 08:02:58;;;;;;;4.00;2.13;;;13.90;99.90;;;;;;20627037;28;20058;-80
2022/10/23 08:12:59;;;;;;;2.92;2.03;;;14.00;99.90;;;;;;20650087;28;20057;-79
2022/10/23 08:23:00;;;;;;;1.95;0.80;;;14.10;99.90;;;;;;20612459;28;20120;-79
2022/10/23 08:33:03;;;;;;;2.85;1.33;;;14.30;99.90;;;;;;20652506;28;20030;-79
2022/10/23 08:43:10;;;;;;;6.00;1.85;;;14.30;99.90;;;;;;20625559;28;20482;-79
2022/10/23 08:53:15;;;;;;;3.63;1.48;;;14.30;99.90;;;;;;20574672;28;20043;-80
2022/10/23 09:03:17;;;;;;;2.88;0.98;;;14.50;99.90;;;;;;20622484;28;20112;-81
2022/10/23 09:13:45;;;;;;;2.25;1.20;;;14.60;99.90;;;;;;20604040;28;20046;-79
2022/10/23 09:23:46;;;;;;;4.68;1.63;;;14.70;99.90;;;;;;20569858;28;21676;-80
2022/10/23 09:33:58;;;;;;;4.65;1.63;;;14.80;99.90;;;;;;20600940;28;20039;-80
2022/10/23 09:43:59;;;;;;;3.38;0.90;;;14.90;99.90;;;;;;20579121;28;20144;-82
2022/10/23 09:54:01;;;;;;;3.50;1.52;;;14.90;99.90;;;;;;20605352;28;20051;-82
2022/10/23 10:04:02;;;;;;;3.92;0.80;;;14.90;99.90;;;;;;20556989;28;20459;-80
2022/10/23 10:14:24;;;;;;;1.65;0.85;;;15.00;99.90;;;;;;20590124;28;20117;-80
2022/10/23 10:24:30;;;;;;;1.85;0.70;;;15.20;99.90;;;;;;20578039;28;20643;-80
2022/10/23 10:34:40;;;;;;;0.97;0.47;;;15.30;99.90;;;;;;20578087;28;20551;-79
2022/10/23 10:45:25;;;;;;;3.63;1.95;;;15.50;99.90;;;;;;20602640;28;20057;-79
2022/10/23 10:55:36;;;;;;;2.42;1.27;;;15.60;99.90;;;;;;20629002;28;20583;-80
2022/10/23 11:05:42;;;;;;;4.25;1.40;;;15.80;99.90;;;;;;20555485;28;20466;-79
2022/10/23 11:15:43;;;;;;;3.13;0.90;;;16.00;99.90;;;;;;20592231;28;20054;-80
2022/10/23 11:26:19;;;;;;;2.80;0.70;;;16.10;99.90;;;;;;20569698;28;20046;-79
2022/10/23 11:36:53;;;;;;;2.38;0.80;;;16.30;99.90;;;;;;20617487;28;20574;-80
2022/10/23 11:47:05;;;;;;;2.35;1.13;;;16.60;99.90;;;;;;20613928;28;20601;-80
2022/10/23 11:57:06;;;;;;;7.47;1.58;;;17.00;99.90;;;;;;20562046;28;20054;-80
2022/10/23 12:07:44;;;;;;;1.38;0.50;;;17.70;99.90;;;;;;20610205;28;20173;-79
2022/10/23 12:17:47;;;;;;;1.67;0.70;;;17.60;99.90;;;;;;20549997;28;20609;-79
2022/10/23 12:28:02;;;;;;;1.92;1.02;;;17.60;99.90;;;;;;20576034;28;20034;-79
2022/10/23 12:38:12;;;;;;;1.67;0.98;;;17.50;99.90;;;;;;20558744;28;20411;-80
2022/10/23 12:48:22;;;;;;;2.67;1.23;;;17.50;99.90;;;;;;20553988;28;20094;-81
2022/10/23 12:58:26;;;;;;;2.60;1.02;;;17.70;99.90;;;;;;20610104;28;20707;-79
2022/10/23 13:08:44;;;;;;;2.03;0.95;;;17.70;99.90;;;;;;20656041;28;20042;-80
2022/10/23 13:18:45;;;;;;;3.03;1.65;;;17.80;99.90;;;;;;20570318;28;20658;-80
2022/10/23 13:28:47;;;;;;;1.30;0.60;;;17.80;99.90;;;;;;20608670;28;20046;-80
2022/10/23 13:39:12;;;;;;;1.50;0.90;;;17.90;99.90;;;;;;20631782;28;20042;-81
2022/10/23 13:49:14;;;;;;;2.10;1.00;;;18.00;99.90;;;;;;20625283;28;20050;-81
2022/10/23 13:59:16;;;;;;;3.22;1.00;;;18.00;99.90;;;;;;20656210;28;21151;-81
2022/10/23 14:09:17;;;;;;;1.05;0.47;;;18.10;99.90;;;;;;20674449;28;20101;-81
2022/10/23 14:19:18;;;;;;;2.17;0.63;;;18.30;99.90;;;;;;20626328;28;20050;-80
2022/10/23 14:29:19;;;;;;;2.42;0.98;;;18.80;99.90;;;;;;20617723;28;20058;-80
2022/10/23 14:39:20;;;;;;;1.80;0.70;;;19.00;99.90;;;;;;20609774;28;20057;-80
2022/10/23 14:49:21;;;;;;;1.75;0.80;;;18.80;99.90;;;;;;20613760;28;20058;-81
2022/10/23 14:59:22;;;;;;;2.08;0.85;;;18.50;99.90;;;;;;20587241;28;20072;-81
2022/10/23 15:09:24;;;;;;;1.80;0.70;;;18.40;99.90;;;;;;20609249;28;20037;-80
2022/10/23 15:19:25;;;;;;;3.50;1.05;;;18.20;99.90;;;;;;20618873;28;20111;-81
2022/10/23 15:29:26;;;;;;;2.45;0.68;;;18.30;99.90;;;;;;20635782;28;20058;-82
2022/10/23 15:39:34;;;;;;;3.63;1.00;;;18.10;99.90;;;;;;20574706;28;20101;-79
2022/10/23 15:49:35;;;;;;;6.28;1.77;;;18.20;99.90;;;;;;20605401;28;20575;-79
2022/10/23 15:59:36;;;;;;;1.92;0.68;;;18.10;99.90;;;;;;20564108;28;20047;-79
2022/10/23 16:09:37;;;;;;;1.45;0.75;;;18.10;99.90;;;;;;20606497;28;20047;-80
2022/10/23 16:19:39;;;;;;;1.52;0.65;;;18.10;99.90;;;;;;20549150;28;20051;-87
2022/10/23 16:29:40;;;;;;;2.28;0.80;;;18.10;99.90;;;;;;20571455;28;20447;-81
2022/10/23 16:39:41;;;;;;;1.63;0.57;;;18.20;99.90;;;;;;20600113;28;20106;-80
2022/10/23 16:49:42;;;;;;;1.30;0.60;;;18.20;99.90;;;;;;20555104;28;20410;-80
2022/10/23 16:59:43;;;;;;;3.53;1.38;;;18.20;99.90;;;;;;20586763;28;20104;-79
2022/10/23 17:09:45;;;;;;;2.13;0.88;;;18.10;99.90;;;;;;20539666;28;20038;-80
2022/10/23 17:19:46;;;;;;;2.22;1.00;;;18.20;99.90;;;;;;20561739;28;20126;-80
2022/10/23 17:29:47;;;;;;;2.25;0.70;;;18.20;99.90;;;;;;20604259;28;20130;-79
2022/10/23 17:39:49;;;;;;;1.23;0.70;;;18.20;99.90;;;;;;20585242;28;20054;-82
2022/10/23 17:49:50;;;;;;;1.48;0.80;;;18.20;99.90;;;;;;20562150;28;20070;-80
2022/10/23 17:59:51;;;;;;;1.40;0.70;;;18.10;99.90;;;;;;20550294;28;20077;-80
2022/10/23 18:09:52;;;;;;;1.42;0.68;;;18.10;99.90;;;;;;20595596;28;20532;-80
2022/10/23 18:19:53;;;;;;;3.55;1.10;;;18.00;99.90;;;;;;20624936;28;20541;-80
2022/10/23 18:29:56;;;;;;;2.15;0.90;;;18.10;99.90;;;;;;20614016;28;20530;-80
2022/10/23 18:39:57;;;;;;;1.63;0.80;;;18.00;99.90;;;;;;20571893;28;20445;-80
2022/10/23 18:49:58;;;;;;;1.75;0.77;;;17.90;99.90;;;;;;20573685;28;20078;-80
2022/10/23 18:59:59;;;;;;;2.65;0.82;;;17.60;99.90;;;;;;20542449;28;20502;-80
2022/10/23 19:10:01;;;;;;;1.98;0.70;;;17.30;99.90;;;;;;20583130;28;20047;-80
2022/10/23 19:20:10;;;;;;;2.17;0.88;;;17.10;99.90;;;;;;20561100;28;20567;-79
2022/10/23 19:30:14;;;;;;;2.25;1.05;;;16.70;99.90;;;;;;20552414;28;20557;-80
2022/10/23 19:40:15;;;;;;;1.70;0.90;;;16.40;99.90;;;;;;20529076;28;20057;-80
2022/10/23 19:50:16;;;;;;;3.33;1.08;;;16.30;99.90;;;;;;20550807;28;20945;-79
2022/10/23 20:00:18;;;;;;;3.42;1.45;;;16.20;99.90;;;;;;20599033;28;21252;-80
2022/10/23 20:10:19;;;;;;;3.42;1.45;;;16.00;99.90;;;;;;20554570;28;20391;-80
2022/10/23 20:20:20;;;;;;;2.60;1.35;;;15.80;99.90;;;;;;20578306;28;20046;-82
2022/10/23 20:30:21;;;;;;;2.88;1.67;;;15.70;99.90;;;;;;20541579;28;20872;-80
2022/10/23 20:40:22;;;;;;;6.18;1.80;;;15.70;99.90;;;;;;20609971;28;20062;-80
2022/10/23 20:50:23;;;;;;;3.28;0.93;;;15.70;99.90;;;;;;20620251;28;20043;-81
2022/10/23 21:00:25;;;;;;;2.00;0.73;;;15.80;99.90;;;;;;20643659;28;20175;-81
2022/10/23 21:11:13;;;;;;;1.45;0.90;;;15.60;99.90;;;;;;20585411;22;20121;-94
2022/10/23 21:22:18;;;;;;;2.67;1.25;;;15.40;99.90;;;;;;20377064;28;20050;-94
2022/10/23 21:32:50;;;;;;;1.20;0.80;;;15.40;99.90;;;;;;20450298;28;20058;-94
2022/10/23 21:43:02;;;;;;;1.35;0.20;;;15.40;99.90;;;;;;20460924;28;20736;-94
2022/10/23 21:53:24;;;;;;;0.57;0.30;;;15.40;99.90;;;;;;20442727;28;20053;-94
2022/10/23 22:03:50;;;;;;;0.65;0.35;;;15.40;99.90;;;;;;20406520;28;20523;-94
2022/10/23 22:14:22;;;;;;;1.50;0.30;;;15.30;99.90;;;;;;20362511;28;20055;-94
2022/10/23 22:24:39;;;;;;;0.57;0.17;;;15.20;99.90;;;;;;20319570;28;20057;-94
2022/10/23 22:35:07;;;;;;;2.20;0.52;;;15.20;99.90;;;;;;20303708;28;20914;-94
2022/10/23 22:45:58;;;;;;;2.60;0.68;;;15.40;99.90;;;;;;20329410;28;20089;-94
2022/10/23 22:56:34;;;;;;;1.35;0.30;;;15.50;99.90;;;;;;20429025;28;20713;-94
2022/10/23 23:06:57;;;;;;;1.42;0.30;;;15.60;99.90;;;;;;20440008;28;21502;-94
2022/10/23 23:17:09;;;;;;;2.28;0.47;;;15.80;99.90;;;;;;20554609;28;20996;-94
2022/10/23 23:27:21;;;;;;;1.45;0.50;;;15.90;99.90;;;;;;20533364;28;20042;-95
2022/10/23 23:38:03;;;;;;;1.20;0.63;;;15.80;99.90;;;;;;20481120;28;20581;-94
2022/10/23 23:48:17;;;;;;;2.17;0.70;;;16.00;99.90;;;;;;20529379;28;20065;-94
2022/10/23 23:58:22;;;;;;;1.13;0.50;;;16.00;99.90;;;;;;20515562;28;20446;-94
